Time;durP1;ratioP1;P1;durP2;ratioP2;P2;SDS_P1;SDS_P2;PMS_P1;PMS_P2;Temp;Humidity;BMP_temperature;BMP_pressure;BME280_temperature;BME280_humidity;BME280_pressure;Samples;Min_cycle;Max_cycle;Signal;HPM_P1;HPM_P2
2023/04/10 00:05:09;;;;;;;17.23;11.43;;;11.70;90.60;;;;;;6225409;22;20020;-87
2023/04/10 00:11:23;;;;;;;14.23;10.68;;;11.70;91.20;;;;;;6224507;23;20481;-87
2023/04/10 00:17:14;;;;;;;13.70;10.10;;;11.70;91.40;;;;;;6222348;23;20027;-87
2023/04/10 00:43:45;;;;;;;12.13;8.60;;;11.50;91.90;;;;;;6226744;23;20015;-88
2023/04/10 00:46:11;;;;;;;11.57;8.95;;;11.50;91.90;;;;;;6200390;23;19997;-88
2023/04/10 00:48:38;;;;;;;11.50;8.10;;;11.50;92.20;;;;;;6194349;23;20032;-87
2023/04/10 00:51:21;;;;;;;11.88;8.15;;;11.50;92.30;;;;;;6194174;23;20005;-87
2023/04/10 00:57:31;;;;;;;13.27;7.95;;;11.50;92.40;;;;;;6219898;23;20012;-88
2023/04/10 01:03:22;;;;;;;11.48;8.20;;;11.40;92.90;;;;;;6219840;23;20003;-87
2023/04/10 01:26:39;;;;;;;;;;;11.30;93.50;;;;;;6105891;23;20117;-86
2023/04/10 01:32:30;;;;;;;11.45;8.55;;;11.20;93.70;;;;;;6101208;23;20010;-87
2023/04/10 01:38:27;;;;;;;12.13;8.82;;;11.10;94.10;;;;;;6099396;23;20069;-87
2023/04/10 01:40:54;;;;;;;9.75;7.50;;;11.10;94.30;;;;;;6098403;23;20014;-87
2023/04/10 01:43:21;;;;;;;11.40;7.90;;;11.10;94.40;;;;;;6098682;23;20002;-87
2023/04/10 01:46:10;;;;;;;11.55;8.23;;;11.10;94.40;;;;;;6050965;23;20475;-88
2023/04/10 01:52:08;;;;;;;11.50;7.70;;;11.10;94.40;;;;;;6099879;23;20009;-87
2023/04/10 01:58:11;;;;;;;10.88;7.82;;;11.00;94.40;;;;;;6190262;23;20123;-87
2023/04/10 02:04:01;;;;;;;12.40;8.55;;;11.00;94.90;;;;;;6189406;23;20083;-87
2023/04/10 02:16:44;;;;;;;;;;;11.00;95.40;;;;;;6111344;23;20021;-87
2023/04/10 02:19:18;;;;;;;12.75;8.38;;;11.00;95.60;;;;;;6216379;23;19943;-87
2023/04/10 02:21:44;;;;;;;13.75;8.95;;;11.00;95.70;;;;;;6169672;23;20021;-86
2023/04/10 02:24:10;;;;;;;12.45;9.25;;;11.00;95.60;;;;;;6188301;23;20023;-87
2023/04/10 02:26:57;;;;;;;12.02;9.18;;;10.90;95.80;;;;;;6161903;23;20005;-86
2023/04/10 02:29:23;;;;;;;11.85;8.70;;;10.90;95.80;;;;;;6138363;23;20145;-87
2023/04/10 02:31:49;;;;;;;12.27;8.68;;;10.90;95.90;;;;;;6138362;23;20005;-87
2023/04/10 02:34:15;;;;;;;11.98;9.13;;;10.90;96.10;;;;;;6137584;23;20011;-87
2023/04/10 02:36:41;;;;;;;13.65;8.27;;;10.90;96.20;;;;;;6138410;23;20013;-87
2023/04/10 02:39:07;;;;;;;12.13;8.55;;;10.90;96.30;;;;;;6137574;23;20024;-87
2023/04/10 02:41:33;;;;;;;12.77;8.60;;;10.80;96.20;;;;;;6187273;23;20005;-87
2023/04/10 02:43:59;;;;;;;12.32;8.88;;;10.80;96.40;;;;;;6187287;23;20073;-87
2023/04/10 02:46:25;;;;;;;13.00;8.95;;;10.80;96.40;;;;;;6162072;23;20015;-87
2023/04/10 02:48:54;;;;;;;12.25;9.07;;;10.70;96.50;;;;;;6138258;23;20005;-87
2023/04/10 02:51:20;;;;;;;13.43;8.68;;;10.70;96.60;;;;;;6161893;23;20092;-87
2023/04/10 02:53:46;;;;;;;11.43;8.43;;;10.70;96.60;;;;;;6162735;23;20012;-87
2023/04/10 02:56:12;;;;;;;11.23;8.48;;;10.70;96.40;;;;;;6138756;23;20032;-87
2023/04/10 02:58:38;;;;;;;13.13;8.23;;;10.60;96.50;;;;;;6162868;23;20424;-87
2023/04/10 03:01:06;;;;;;;12.15;8.55;;;10.60;96.60;;;;;;6188886;23;20007;-87
2023/04/10 03:03:32;;;;;;;12.35;8.77;;;10.60;96.50;;;;;;6163987;23;20004;-87
2023/04/10 03:05:57;;;;;;;12.98;9.02;;;10.50;96.70;;;;;;6140626;23;20005;-87
2023/04/10 03:08:23;;;;;;;13.15;8.88;;;10.50;96.60;;;;;;6146808;23;20001;-87
2023/04/10 03:10:49;;;;;;;13.27;8.93;;;10.50;96.90;;;;;;6161256;23;20028;-87
2023/04/10 03:16:37;;;;;;;13.70;9.52;;;10.40;96.90;;;;;;6188273;23;20028;-87
2023/04/10 03:19:03;;;;;;;13.63;8.88;;;10.40;97.10;;;;;;6163069;23;20013;-87
2023/04/10 03:21:31;;;;;;;10.82;8.48;;;10.40;97.20;;;;;;6187481;23;20441;-87
2023/04/10 03:23:57;;;;;;;15.85;9.20;;;10.30;97.30;;;;;;6178623;23;19999;-87
2023/04/10 03:26:24;;;;;;;13.23;9.15;;;10.30;97.50;;;;;;6192773;23;20017;-87
2023/04/10 03:28:50;;;;;;;12.85;9.40;;;10.40;97.70;;;;;;6219365;23;20481;-86
2023/04/10 03:31:15;;;;;;;17.40;9.30;;;10.30;97.80;;;;;;6167941;23;20008;-87
2023/04/10 03:37:08;;;;;;;16.35;9.82;;;10.30;97.80;;;;;;6218133;23;20028;-87
2023/04/10 03:42:57;;;;;;;14.63;10.05;;;10.30;97.90;;;;;;6218829;23;20417;-87
2023/04/10 03:45:22;;;;;;;14.32;9.55;;;10.20;97.90;;;;;;6167825;23;20005;-87
2023/04/10 03:47:48;;;;;;;14.80;9.95;;;10.20;98.00;;;;;;6193451;23;20051;-87
2023/04/10 03:50:14;;;;;;;14.55;10.15;;;10.10;98.30;;;;;;6167972;23;20012;-87
2023/04/10 03:52:40;;;;;;;14.60;9.68;;;10.10;98.40;;;;;;6168398;23;20387;-86
2023/04/10 03:55:06;;;;;;;16.73;10.93;;;10.20;98.70;;;;;;6168480;23;20481;-88
2023/04/10 03:57:31;;;;;;;16.00;11.10;;;10.20;99.00;;;;;;6192566;23;20473;-86
2023/04/10 03:59:57;;;;;;;16.00;11.80;;;10.10;99.10;;;;;;6167966;23;20008;-87
2023/04/10 04:02:23;;;;;;;16.67;11.52;;;10.10;99.00;;;;;;6193100;23;20466;-87
2023/04/10 04:04:48;;;;;;;17.63;11.57;;;10.10;99.30;;;;;;6192559;23;20327;-87
2023/04/10 04:07:14;;;;;;;14.85;10.45;;;10.10;99.40;;;;;;6192353;23;20011;-87
2023/04/10 04:09:40;;;;;;;14.57;10.40;;;10.10;99.70;;;;;;6168058;23;20015;-87
2023/04/10 04:12:06;;;;;;;16.40;11.30;;;10.10;99.80;;;;;;6192522;23;20023;-87
2023/04/10 04:15:28;;;;;;;14.27;11.02;;;10.10;99.90;;;;;;6167661;23;20009;-88
2023/04/10 04:29:45;;;;;;;12.65;9.13;;;9.90;99.90;;;;;;6218167;23;20534;-88
2023/04/10 04:48:54;;;;;;;15.75;9.98;;;9.80;99.90;;;;;;6217329;23;20013;-88
2023/04/10 04:51:20;;;;;;;13.68;9.48;;;9.80;99.90;;;;;;6192096;23;20009;-88
2023/04/10 04:53:46;;;;;;;13.85;9.25;;;9.70;99.90;;;;;;6167814;23;20059;-88
2023/04/10 04:56:11;;;;;;;14.73;9.25;;;9.70;99.90;;;;;;6192405;23;20009;-89
2023/04/10 05:16:35;;;;;;;15.27;10.30;;;9.60;99.90;;;;;;6218490;23;20000;-87
2023/04/10 05:22:36;;;;;;;13.90;9.75;;;9.60;99.90;;;;;;6220106;23;20005;-88
2023/04/10 05:28:39;;;;;;;15.45;10.45;;;9.50;99.90;;;;;;6218936;23;20040;-88
2023/04/10 05:31:05;;;;;;;13.60;10.10;;;9.60;99.90;;;;;;6170959;23;20326;-89
2023/04/10 05:33:31;;;;;;;13.70;9.80;;;9.60;99.90;;;;;;6178744;23;20008;-88
2023/04/10 05:36:28;;;;;;;13.88;9.90;;;9.60;99.90;;;;;;6168679;23;20012;-88
2023/04/10 05:42:21;;;;;;;13.38;9.18;;;9.60;99.90;;;;;;6230915;23;20004;-87
2023/04/10 05:52:34;;;;;;;14.43;10.15;;;9.60;99.90;;;;;;6221431;23;20008;-87
2023/04/10 05:59:03;;;;;;;13.60;9.48;;;9.60;99.90;;;;;;6218725;23;20346;-88
2023/04/10 06:04:56;;;;;;;13.15;10.02;;;9.60;99.90;;;;;;6219468;23;20015;-87
2023/04/10 06:11:16;;;;;;;15.48;10.32;;;9.70;99.90;;;;;;6219843;23;20012;-88
2023/04/10 06:17:42;;;;;;;13.68;9.98;;;9.70;99.90;;;;;;6219713;23;20023;-89
2023/04/10 06:27:37;;;;;;;14.57;10.50;;;9.70;99.90;;;;;;6220003;23;20024;-88
2023/04/10 06:38:25;;;;;;;14.68;10.73;;;9.80;99.90;;;;;;6218511;23;20020;-88
2023/04/10 06:44:15;;;;;;;15.32;9.95;;;9.90;99.90;;;;;;6219000;23;20051;-88
2023/04/10 06:50:37;;;;;;;13.60;9.85;;;9.90;99.90;;;;;;6218952;23;20015;-88
2023/04/10 06:56:47;;;;;;;13.93;9.65;;;10.00;99.90;;;;;;6218840;23;20319;-88
2023/04/10 07:03:06;;;;;;;13.90;9.57;;;10.10;99.90;;;;;;6218762;23;20078;-88
2023/04/10 07:08:55;;;;;;;15.85;9.95;;;10.20;99.90;;;;;;6218113;23;20032;-87
2023/04/10 07:14:52;;;;;;;16.25;10.45;;;10.40;99.90;;;;;;6219005;23;20062;-88
2023/04/10 07:20:42;;;;;;;13.75;10.10;;;10.60;99.90;;;;;;6218335;23;20032;-87
2023/04/10 07:23:08;;;;;;;15.65;9.60;;;10.60;99.90;;;;;;6167792;23;20004;-88
2023/04/10 07:25:33;;;;;;;14.15;9.70;;;10.70;99.90;;;;;;6192201;23;20091;-88
2023/04/10 07:31:40;;;;;;;11.10;7.97;;;10.80;99.90;;;;;;6218728;23;20078;-88
2023/04/10 07:34:06;;;;;;;11.85;8.82;;;10.90;99.90;;;;;;6191781;23;20449;-87
2023/04/10 07:36:32;;;;;;;10.63;7.88;;;10.90;99.90;;;;;;6192357;23;20323;-87
2023/04/10 07:38:58;;;;;;;10.70;7.72;;;11.00;99.90;;;;;;6219291;23;20011;-86
2023/04/10 07:41:26;;;;;;;12.30;7.80;;;11.00;99.90;;;;;;6176788;23;20012;-86
2023/04/10 07:43:57;;;;;;;13.65;7.75;;;11.00;99.90;;;;;;6169746;23;20430;-87
2023/04/10 07:46:23;;;;;;;10.52;7.68;;;11.00;99.90;;;;;;6192271;23;20001;-87
2023/04/10 07:59:14;;;;;;;14.43;7.50;;;11.30;99.90;;;;;;6219425;23;20095;-87
2023/04/10 08:01:40;;;;;;;10.30;7.32;;;11.40;99.90;;;;;;6193298;23;20327;-87
2023/04/10 08:04:08;;;;;;;12.63;7.97;;;11.40;99.80;;;;;;6168299;23;20009;-87
2023/04/10 08:06:34;;;;;;;18.83;7.88;;;11.40;99.70;;;;;;6220152;23;20001;-87
2023/04/10 08:09:00;;;;;;;10.27;7.70;;;11.50;99.90;;;;;;6168649;23;20020;-87
2023/04/10 08:11:35;;;;;;;10.57;7.57;;;11.50;99.20;;;;;;6170485;23;20008;-87
2023/04/10 08:14:02;;;;;;;10.18;7.55;;;11.60;99.70;;;;;;6176297;23;20016;-87
2023/04/10 08:16:32;;;;;;;11.10;8.13;;;11.70;99.70;;;;;;6213109;23;20008;-87
2023/04/10 08:19:01;;;;;;;10.95;7.85;;;11.80;99.90;;;;;;6193819;23;20045;-87
2023/04/10 08:22:04;;;;;;;10.27;7.28;;;12.00;99.50;;;;;;6192400;23;20023;-87
2023/04/10 08:24:30;;;;;;;9.98;7.65;;;12.10;99.50;;;;;;6191381;23;20004;-86
2023/04/10 08:26:56;;;;;;;10.13;7.53;;;12.20;98.70;;;;;;6167310;23;20469;-87
2023/04/10 08:29:21;;;;;;;10.27;7.25;;;12.30;97.40;;;;;;6191586;23;20022;-88
2023/04/10 08:31:47;;;;;;;10.43;7.10;;;12.40;96.40;;;;;;6166361;23;20012;-87
2023/04/10 08:34:12;;;;;;;9.13;7.07;;;12.40;97.20;;;;;;6190289;23;20435;-88
2023/04/10 08:36:38;;;;;;;10.90;7.15;;;12.50;96.40;;;;;;6166033;23;20431;-85
2023/04/10 08:39:04;;;;;;;17.45;8.25;;;12.50;96.30;;;;;;6165815;23;20104;-87
2023/04/10 08:41:29;;;;;;;9.27;6.95;;;12.50;96.20;;;;;;6190975;23;20039;-88
2023/04/10 08:43:59;;;;;;;9.10;6.40;;;12.60;95.90;;;;;;6166961;23;20005;-86
2023/04/10 08:50:02;;;;;;;9.70;6.80;;;12.70;94.50;;;;;;6216650;23;20429;-86
2023/04/10 08:52:32;;;;;;;9.30;7.28;;;12.70;94.00;;;;;;6214602;23;20008;-88
2023/04/10 08:55:01;;;;;;;10.68;6.85;;;12.70;94.00;;;;;;6168045;23;20008;-86
2023/04/10 08:57:33;;;;;;;9.80;7.22;;;12.70;93.60;;;;;;6168167;23;20027;-87
2023/04/10 09:00:02;;;;;;;10.38;7.22;;;12.80;94.10;;;;;;6192637;23;20055;-87
2023/04/10 09:02:28;;;;;;;9.57;7.13;;;12.80;94.50;;;;;;6192836;23;20012;-89
2023/04/10 09:04:59;;;;;;;8.45;6.40;;;12.90;94.80;;;;;;6192726;23;20410;-89
2023/04/10 09:07:28;;;;;;;9.88;6.60;;;13.00;94.80;;;;;;6193289;23;20012;-89
2023/04/10 09:09:59;;;;;;;11.73;7.05;;;13.10;94.10;;;;;;6193977;23;20040;-88
2023/04/10 09:12:25;;;;;;;9.32;6.65;;;13.10;94.20;;;;;;6171271;23;20000;-88
2023/04/10 09:14:52;;;;;;;10.25;6.88;;;13.20;94.50;;;;;;6201980;23;20064;-88
2023/04/10 09:17:20;;;;;;;9.70;6.78;;;13.30;93.70;;;;;;6207615;23;20021;-88
2023/04/10 09:19:48;;;;;;;9.27;7.10;;;13.30;93.50;;;;;;6195479;23;20011;-88
2023/04/10 09:22:15;;;;;;;9.75;7.47;;;13.30;93.90;;;;;;6193341;23;20004;-88
2023/04/10 09:24:47;;;;;;;10.13;7.40;;;13.30;93.00;;;;;;6192802;23;19997;-87
2023/04/10 09:27:46;;;;;;;9.80;6.28;;;13.40;93.10;;;;;;6193077;23;20130;-88
2023/04/10 09:30:41;;;;;;;9.13;6.88;;;13.40;92.70;;;;;;6193214;23;20070;-89
2023/04/10 09:33:26;;;;;;;8.82;6.28;;;13.40;92.80;;;;;;6193458;23;20411;-87
2023/04/10 09:35:53;;;;;;;8.43;6.35;;;13.60;93.40;;;;;;6193312;23;20024;-88
2023/04/10 09:41:59;;;;;;;10.05;6.32;;;13.70;92.60;;;;;;6219969;23;20031;-89
2023/04/10 09:48:16;;;;;;;9.75;5.80;;;13.80;92.70;;;;;;6222670;23;20032;-87
2023/04/10 09:50:42;;;;;;;9.55;6.07;;;13.80;91.50;;;;;;6206167;23;20451;-88
2023/04/10 09:53:10;;;;;;;8.65;5.97;;;13.80;92.10;;;;;;6201173;23;20004;-88
2023/04/10 09:55:36;;;;;;;9.52;5.95;;;13.80;91.90;;;;;;6194603;23;20032;-87
2023/04/10 09:58:04;;;;;;;8.75;5.85;;;13.80;91.50;;;;;;6168125;23;20431;-90
2023/04/10 10:00:41;;;;;;;9.57;6.05;;;13.80;92.10;;;;;;6191990;23;20007;-91
2023/04/10 10:03:11;;;;;;;7.55;5.93;;;13.90;92.10;;;;;;6192114;23;20011;-94
2023/04/10 10:05:45;;;;;;;7.93;5.45;;;13.90;92.10;;;;;;6195277;23;20007;-85
2023/04/10 10:08:12;;;;;;;10.45;6.05;;;13.90;92.30;;;;;;6192239;23;20027;-89
2023/04/10 10:10:46;;;;;;;8.00;4.95;;;14.00;91.90;;;;;;6218194;23;20001;-87
2023/04/10 10:13:48;;;;;;;8.07;5.20;;;14.00;92.10;;;;;;6218512;23;20079;-91
2023/04/10 10:20:01;;;;;;;10.32;5.85;;;14.10;91.90;;;;;;6221575;23;20023;-90
2023/04/10 10:22:52;;;;;;;10.93;5.43;;;14.20;92.00;;;;;;6192307;23;19997;-92
2023/04/10 10:25:21;;;;;;;9.15;6.07;;;14.20;92.60;;;;;;6216875;23;20008;-89
2023/04/10 10:31:24;;;;;;;8.52;5.22;;;14.30;91.20;;;;;;6216225;23;20085;-91
2023/04/10 10:33:54;;;;;;;9.07;5.20;;;14.30;91.60;;;;;;6192294;23;20013;-90
2023/04/10 10:36:24;;;;;;;9.38;5.68;;;14.30;91.70;;;;;;6192147;23;20300;-90
2023/04/10 10:42:34;;;;;;;8.65;5.20;;;14.40;91.20;;;;;;6218676;23;20008;-92
2023/04/10 10:45:29;;;;;;;8.32;5.10;;;14.50;91.30;;;;;;6195642;23;20473;-88
2023/04/10 10:48:02;;;;;;;8.07;5.25;;;14.60;91.50;;;;;;6197257;22;19989;-91
2023/04/10 10:51:10;;;;;;;6.65;5.20;;;14.60;90.30;;;;;;6199638;23;20003;-90
2023/04/10 10:53:39;;;;;;;7.43;5.47;;;14.70;91.20;;;;;;6044554;23;20034;-89
2023/04/10 10:56:17;;;;;;;7.05;5.28;;;14.70;90.20;;;;;;6045250;23;20010;-91
2023/04/10 11:06:05;;;;;;;9.60;5.20;;;14.90;90.20;;;;;;6072881;23;20030;-90
2023/04/10 11:08:32;;;;;;;7.55;5.78;;;15.00;91.00;;;;;;6044828;23;20003;-92
2023/04/10 11:11:17;;;;;;;7.13;5.28;;;15.00;90.30;;;;;;6088460;23;20048;-91
2023/04/10 11:14:21;;;;;;;7.13;5.00;;;15.10;90.80;;;;;;6168577;23;20031;-92
2023/04/10 11:16:47;;;;;;;7.15;4.78;;;15.20;91.00;;;;;;6192345;23;20084;-91
2023/04/10 11:19:13;;;;;;;8.18;5.10;;;15.30;90.80;;;;;;6191722;23;20059;-92
2023/04/10 11:22:04;;;;;;;10.55;4.57;;;15.40;90.10;;;;;;6191794;23;20470;-91
2023/04/10 11:24:52;;;;;;;7.32;4.78;;;15.50;90.40;;;;;;6174052;23;20072;-94
2023/04/10 11:27:45;;;;;;;6.10;4.47;;;15.60;90.10;;;;;;6191567;23;20031;-96
2023/04/10 11:30:29;;;;;;;6.57;4.28;;;15.80;90.40;;;;;;6189130;23;20375;-91
2023/04/10 11:32:57;;;;;;;6.63;4.47;;;15.90;89.50;;;;;;6166454;23;20047;-91
2023/04/10 11:35:34;;;;;;;;;;;;;;;;;;;;;
2023/04/10 11:38:10;;;;;;;8.20;4.75;;;16.00;86.60;;;;;;6217581;23;20076;-91
2023/04/10 11:41:09;;;;;;;;;;;;;;;;;;;;;
2023/04/10 11:46:39;;;;;;;6.38;4.40;;;16.30;85.90;;;;;;6166408;23;20009;-92
2023/04/10 11:49:18;;;;;;;6.85;4.95;;;16.30;86.80;;;;;;6192053;23;20001;-89
2023/04/10 11:51:47;;;;;;;6.68;4.80;;;16.30;86.30;;;;;;6191684;23;20008;-93
2023/04/10 11:54:15;;;;;;;8.52;4.95;;;16.30;85.70;;;;;;6191173;23;20099;-87
2023/04/10 11:56:46;;;;;;;6.97;4.88;;;16.30;85.60;;;;;;6190415;23;20001;-89
2023/04/10 11:59:18;;;;;;;;;;;16.30;85.50;;;;;;6201293;23;20003;-86
2023/04/10 12:01:52;;;;;;;6.13;4.18;;;16.20;85.50;;;;;;6191187;23;19927;-86
2023/04/10 12:04:22;;;;;;;6.00;4.18;;;16.20;84.70;;;;;;6168517;23;20028;-87
2023/04/10 12:06:56;;;;;;;7.13;4.47;;;16.20;85.90;;;;;;6190743;23;20004;-87
2023/04/10 12:09:22;;;;;;;5.95;4.35;;;16.20;85.00;;;;;;6190736;23;20047;-86
2023/04/10 12:12:01;;;;;;;7.15;4.82;;;16.30;86.40;;;;;;6191124;23;20012;-87
2023/04/10 12:14:33;;;;;;;7.55;4.90;;;16.40;87.40;;;;;;6166586;23;20043;-87
2023/04/10 12:17:00;;;;;;;6.88;3.42;;;16.40;87.80;;;;;;6190503;23;20022;-87
2023/04/10 12:19:26;;;;;;;5.63;3.65;;;16.50;86.70;;;;;;6191172;23;20001;-89
2023/04/10 12:21:58;;;;;;;6.07;3.70;;;16.60;85.70;;;;;;6191300;23;19997;-87
2023/04/10 12:24:47;;;;;;;6.25;3.67;;;16.70;85.50;;;;;;6190789;23;20044;-87
2023/04/10 12:27:21;;;;;;;7.45;3.92;;;16.70;85.00;;;;;;6192487;23;20008;-87
2023/04/10 12:29:50;;;;;;;5.70;3.50;;;16.70;83.80;;;;;;6192815;23;20013;-87
2023/04/10 12:32:16;;;;;;;8.50;4.35;;;16.80;84.60;;;;;;6193038;23;20089;-87
2023/04/10 12:34:49;;;;;;;4.55;3.17;;;16.80;81.50;;;;;;6192428;23;19997;-90
2023/04/10 12:37:15;;;;;;;7.70;3.42;;;16.80;81.70;;;;;;6192787;23;20091;-87
2023/04/10 12:39:46;;;;;;;4.68;2.85;;;16.80;80.00;;;;;;6169690;23;20414;-87
2023/04/10 12:42:19;;;;;;;6.68;3.25;;;16.80;79.80;;;;;;6214064;23;20007;-88
2023/04/10 12:44:56;;;;;;;4.45;3.15;;;16.90;80.30;;;;;;6240313;23;19997;-85
2023/04/10 12:47:25;;;;;;;4.78;2.85;;;16.90;81.00;;;;;;6180427;23;20100;-86
2023/04/10 12:50:07;;;;;;;6.82;3.03;;;17.00;80.40;;;;;;6197056;23;20000;-87
2023/04/10 12:52:33;;;;;;;5.40;3.33;;;17.00;83.10;;;;;;6221713;23;20076;-85
2023/04/10 12:55:12;;;;;;;5.40;3.33;;;17.10;80.70;;;;;;6169237;23;20007;-87
2023/04/10 12:57:40;;;;;;;6.00;3.47;;;17.00;79.90;;;;;;6219083;23;20009;-86
2023/04/10 13:00:11;;;;;;;6.05;3.60;;;16.90;81.20;;;;;;6168437;23;20071;-86
2023/04/10 13:02:39;;;;;;;;;;;16.80;79.90;;;;;;6169056;23;20015;-86
2023/04/10 13:05:06;;;;;;;3.80;2.95;;;16.80;79.40;;;;;;6192300;23;19911;-87
2023/04/10 13:07:38;;;;;;;5.50;3.08;;;16.80;80.40;;;;;;6192707;23;20012;-86
2023/04/10 13:10:06;;;;;;;4.70;3.35;;;16.80;81.20;;;;;;6219771;23;19997;-86
2023/04/10 13:12:33;;;;;;;5.60;3.30;;;16.70;79.90;;;;;;6193417;23;20440;-88
2023/04/10 13:15:00;;;;;;;4.95;3.13;;;16.70;79.50;;;;;;6201926;23;19997;-87
2023/04/10 13:17:28;;;;;;;4.72;3.00;;;16.70;80.90;;;;;;6185682;22;20007;-87
2023/04/10 13:19:54;;;;;;;6.32;3.20;;;16.70;81.20;;;;;;6218460;22;20005;-86
2023/04/10 13:22:20;;;;;;;4.70;3.25;;;16.70;80.70;;;;;;6180275;23;20427;-85
2023/04/10 13:24:46;;;;;;;5.47;3.30;;;16.60;80.70;;;;;;6193350;23;20434;-86
2023/04/10 13:27:12;;;;;;;5.68;3.08;;;16.60;80.00;;;;;;6167759;23;20015;-85
2023/04/10 13:29:42;;;;;;;5.15;2.95;;;16.60;81.20;;;;;;6191648;23;20083;-85
2023/04/10 13:32:08;;;;;;;5.45;3.20;;;16.60;81.30;;;;;;6192733;23;19997;-86
2023/04/10 13:34:34;;;;;;;6.03;3.10;;;16.60;80.30;;;;;;6168492;23;20027;-87
2023/04/10 13:37:00;;;;;;;6.65;3.15;;;16.60;80.50;;;;;;6193199;23;20004;-87
2023/04/10 13:39:28;;;;;;;5.55;3.13;;;16.50;80.30;;;;;;6192639;23;19996;-85
2023/04/10 13:41:54;;;;;;;6.00;3.13;;;16.60;81.60;;;;;;6168113;23;20059;-87
2023/04/10 13:44:20;;;;;;;6.85;3.47;;;16.50;80.60;;;;;;6194207;23;20065;-86
2023/04/10 13:46:46;;;;;;;11.80;3.65;;;16.50;81.10;;;;;;6167144;23;20001;-87
2023/04/10 13:49:16;;;;;;;5.25;3.25;;;16.50;80.70;;;;;;6167282;23;20008;-86
2023/04/10 13:51:43;;;;;;;4.95;2.95;;;16.50;80.30;;;;;;6167406;23;20013;-86
2023/04/10 13:54:09;;;;;;;4.75;3.20;;;16.50;80.60;;;;;;6191730;23;20004;-87
2023/04/10 13:56:40;;;;;;;4.55;2.95;;;16.50;80.80;;;;;;6167211;23;20004;-86
2023/04/10 13:59:08;;;;;;;5.35;2.90;;;16.50;81.60;;;;;;6191793;23;20008;-86
2023/04/10 14:01:34;;;;;;;4.63;3.30;;;16.50;80.60;;;;;;6192734;23;20019;-86
2023/04/10 14:03:59;;;;;;;5.35;3.17;;;16.40;81.10;;;;;;6191195;23;20005;-86
2023/04/10 14:06:28;;;;;;;4.00;2.83;;;16.50;81.80;;;;;;6194530;23;19997;-87
2023/04/10 14:08:54;;;;;;;4.80;3.35;;;16.50;81.00;;;;;;6200348;23;20060;-86
2023/04/10 14:11:20;;;;;;;5.35;2.85;;;16.50;82.20;;;;;;6190275;23;20001;-85
2023/04/10 14:13:48;;;;;;;4.72;3.10;;;16.50;82.20;;;;;;6164696;23;20001;-85
2023/04/10 14:16:14;;;;;;;4.10;3.03;;;16.60;81.60;;;;;;6190419;23;20009;-85
2023/04/10 14:18:40;;;;;;;4.95;3.05;;;16.60;81.60;;;;;;6165279;23;20019;-86
2023/04/10 14:21:06;;;;;;;4.78;2.90;;;16.60;80.60;;;;;;6165340;23;20005;-85
2023/04/10 14:23:31;;;;;;;4.20;2.78;;;16.60;81.20;;;;;;6165367;23;20009;-85
2023/04/10 14:25:57;;;;;;;3.63;2.60;;;16.70;81.10;;;;;;6164978;23;20032;-86
2023/04/10 14:28:23;;;;;;;6.03;2.80;;;16.60;81.90;;;;;;6165112;23;20004;-85
2023/04/10 14:30:50;;;;;;;6.03;3.13;;;16.70;80.80;;;;;;6189102;23;20044;-87
2023/04/10 14:33:17;;;;;;;4.07;3.03;;;16.70;79.30;;;;;;6165970;23;20007;-86
2023/04/10 14:35:44;;;;;;;4.18;2.58;;;16.70;80.60;;;;;;6190040;23;20083;-86
2023/04/10 14:38:11;;;;;;;5.15;2.70;;;16.70;79.60;;;;;;6166025;23;20335;-86
2023/04/10 14:40:39;;;;;;;3.30;2.53;;;16.70;79.70;;;;;;6165753;23;20039;-89
2023/04/10 14:43:07;;;;;;;5.28;2.42;;;16.70;79.20;;;;;;6166284;23;20075;-87
2023/04/10 14:45:34;;;;;;;4.55;2.72;;;16.80;80.60;;;;;;6165859;23;20008;-87
2023/04/10 14:48:00;;;;;;;4.50;2.40;;;16.80;79.70;;;;;;6165324;23;20017;-86
2023/04/10 14:50:30;;;;;;;5.55;2.70;;;16.80;80.10;;;;;;6217981;23;20003;-87
2023/04/10 14:52:58;;;;;;;4.78;2.60;;;16.80;80.10;;;;;;6191188;23;20008;-87
2023/04/10 14:55:24;;;;;;;4.50;2.60;;;16.80;80.60;;;;;;6191303;23;20008;-87
2023/04/10 14:57:50;;;;;;;3.65;2.45;;;16.80;82.80;;;;;;6165989;23;20023;-87
2023/04/10 15:00:16;;;;;;;5.45;2.80;;;16.70;84.30;;;;;;6190720;23;19996;-87
2023/04/10 15:02:42;;;;;;;4.93;2.67;;;16.70;84.00;;;;;;6165868;23;20079;-92
2023/04/10 15:05:07;;;;;;;4.38;2.80;;;16.60;85.20;;;;;;6166332;23;20032;-87
2023/04/10 15:07:33;;;;;;;6.45;3.17;;;16.50;88.90;;;;;;6190930;23;20036;-88
2023/04/10 15:10:11;;;;;;;5.85;3.67;;;16.40;90.00;;;;;;6165977;23;20008;-91
2023/04/10 15:12:50;;;;;;;4.32;2.67;;;16.30;90.70;;;;;;6168303;23;20414;-87
2023/04/10 15:15:27;;;;;;;8.15;2.75;;;16.10;92.70;;;;;;6167742;23;20005;-87
2023/04/10 15:17:55;;;;;;;4.38;2.65;;;16.00;93.30;;;;;;6190033;23;20439;-86
2023/04/10 15:20:24;;;;;;;7.78;2.63;;;15.80;93.90;;;;;;6189786;23;20000;-87
2023/04/10 15:22:57;;;;;;;4.22;2.28;;;15.60;93.90;;;;;;6189461;23;20445;-87
2023/04/10 15:25:25;;;;;;;3.45;2.50;;;15.40;95.20;;;;;;6190146;23;20047;-86
2023/04/10 15:27:54;;;;;;;4.30;2.67;;;15.30;96.80;;;;;;6189459;23;20001;-86
2023/04/10 15:30:20;;;;;;;7.63;2.95;;;15.20;98.30;;;;;;6189077;23;20009;-86
2023/04/10 15:32:45;;;;;;;4.40;2.30;;;15.10;99.90;;;;;;6164747;23;20375;-87
2023/04/10 15:35:11;;;;;;;4.85;3.13;;;15.00;99.90;;;;;;6189694;23;20084;-86
2023/04/10 15:37:37;;;;;;;6.22;2.92;;;14.90;99.90;;;;;;6165346;23;20066;-87
2023/04/10 15:40:09;;;;;;;4.15;2.50;;;14.80;99.90;;;;;;6189327;23;20000;-86
2023/04/10 15:42:35;;;;;;;5.70;2.60;;;14.70;99.90;;;;;;6165877;23;20000;-88
2023/04/10 15:45:02;;;;;;;6.30;2.90;;;14.60;99.90;;;;;;6189760;23;20001;-86
2023/04/10 15:47:28;;;;;;;6.55;3.20;;;14.50;99.90;;;;;;6191073;23;20005;-86
2023/04/10 15:49:56;;;;;;;5.53;2.95;;;14.40;99.90;;;;;;6174960;23;20279;-87
2023/04/10 15:52:21;;;;;;;3.78;2.65;;;14.30;99.90;;;;;;6211625;23;19996;-90
2023/04/10 15:54:47;;;;;;;7.53;2.83;;;14.20;99.90;;;;;;6190521;23;20007;-94
2023/04/10 15:57:13;;;;;;;5.00;3.20;;;14.20;99.90;;;;;;6168039;23;20096;-86
2023/04/10 15:59:39;;;;;;;4.50;2.75;;;14.10;99.90;;;;;;6164427;23;20063;-86
2023/04/10 16:02:07;;;;;;;4.55;3.20;;;14.10;99.90;;;;;;6165606;23;20013;-89
2023/04/10 16:04:34;;;;;;;4.97;3.28;;;14.00;99.90;;;;;;6165775;23;20004;-86
2023/04/10 16:06:59;;;;;;;4.40;2.90;;;14.00;99.90;;;;;;6190923;23;20001;-87
2023/04/10 16:09:26;;;;;;;4.65;3.08;;;14.00;99.90;;;;;;6168288;23;20016;-87
2023/04/10 16:11:52;;;;;;;4.80;2.95;;;14.00;99.90;;;;;;6180353;23;20001;-89
2023/04/10 16:14:25;;;;;;;4.45;2.70;;;14.00;99.90;;;;;;6210790;23;19988;-90
2023/04/10 16:16:51;;;;;;;5.32;3.28;;;14.00;99.90;;;;;;6182421;23;20024;-87
2023/04/10 16:19:17;;;;;;;5.13;3.03;;;14.00;99.90;;;;;;6193689;23;20004;-85
2023/04/10 16:21:47;;;;;;;8.32;3.30;;;14.00;99.90;;;;;;6167237;23;20005;-87
2023/04/10 16:24:13;;;;;;;7.93;3.13;;;14.00;99.90;;;;;;6166874;23;20438;-87
2023/04/10 16:26:39;;;;;;;4.80;2.90;;;14.00;99.90;;;;;;6164944;23;20053;-87
2023/04/10 16:29:17;;;;;;;5.13;3.05;;;14.00;99.90;;;;;;6189368;23;20005;-87
2023/04/10 16:31:42;;;;;;;7.40;3.15;;;13.90;99.90;;;;;;6167013;23;20021;-86
2023/04/10 16:34:08;;;;;;;5.70;3.00;;;13.90;99.90;;;;;;6164703;23;20104;-87
2023/04/10 16:36:36;;;;;;;5.05;3.17;;;14.00;99.90;;;;;;6190080;23;20059;-87
2023/04/10 16:39:04;;;;;;;6.50;3.15;;;14.00;99.90;;;;;;6189120;23;20019;-88
2023/04/10 16:41:30;;;;;;;5.50;3.33;;;14.00;99.90;;;;;;6189789;23;20015;-87
2023/04/10 16:43:56;;;;;;;5.82;2.80;;;14.00;99.90;;;;;;6164505;23;20032;-87
2023/04/10 16:46:22;;;;;;;4.57;2.58;;;14.00;99.90;;;;;;6165337;23;20488;-87
2023/04/10 16:48:47;;;;;;;3.67;2.42;;;14.00;99.90;;;;;;6189963;23;20091;-88
2023/04/10 16:51:17;;;;;;;5.18;2.80;;;14.00;99.90;;;;;;6189002;23;20008;-86
2023/04/10 16:53:45;;;;;;;6.97;3.38;;;14.00;99.90;;;;;;6189303;23;20032;-87
2023/04/10 16:56:11;;;;;;;4.03;2.50;;;14.10;99.90;;;;;;6189303;23;20367;-88
2023/04/10 16:58:40;;;;;;;4.32;2.55;;;14.10;99.90;;;;;;6165310;23;20091;-86
2023/04/10 17:01:19;;;;;;;4.43;2.72;;;14.10;99.90;;;;;;6190952;23;20008;-85
2023/04/10 17:03:46;;;;;;;6.07;3.08;;;14.20;99.90;;;;;;6190518;23;20423;-87
2023/04/10 17:06:12;;;;;;;4.05;2.80;;;14.30;99.90;;;;;;6215929;23;19996;-86
2023/04/10 17:08:38;;;;;;;4.35;2.70;;;14.30;99.90;;;;;;6163389;23;20017;-86
2023/04/10 17:11:04;;;;;;;5.38;3.00;;;14.30;99.90;;;;;;6163849;23;20011;-86
2023/04/10 17:13:30;;;;;;;5.18;3.35;;;14.30;99.90;;;;;;6165210;23;20009;-87
2023/04/10 17:15:55;;;;;;;7.13;3.67;;;14.30;99.90;;;;;;6166474;23;20032;-89
2023/04/10 17:18:21;;;;;;;7.82;3.95;;;14.20;99.90;;;;;;6167025;23;20044;-88
2023/04/10 17:20:47;;;;;;;10.38;4.22;;;14.10;99.90;;;;;;6165944;23;20005;-86
2023/04/10 17:23:13;;;;;;;5.93;4.07;;;14.00;99.90;;;;;;6165571;23;20008;-87
2023/04/10 17:25:40;;;;;;;9.57;4.30;;;13.90;99.90;;;;;;6166644;23;20493;-87